Time;durP1;ratioP1;P1;durP2;ratioP2;P2;SDS_P1;SDS_P2;PMS_P1;PMS_P2;Temp;Humidity;BMP_temperature;BMP_pressure;BME280_temperature;BME280_humidity;BME280_pressure;Samples;Min_cycle;Max_cycle;Signal;HPM_P1;HPM_P2
2023/04/01 00:01:07;;;;;;;11.82;6.03;;;;;;;9.41;84.25;99461.53;7391624;19;20335;-67
2023/04/01 00:03:34;;;;;;;15.30;6.53;;;;;;;9.42;83.97;99463.19;7389090;19;20002;-66
2023/04/01 00:06:01;;;;;;;12.65;6.53;;;;;;;9.37;84.43;99463.66;7391594;19;20025;-67
2023/04/01 00:08:28;;;;;;;11.55;6.63;;;;;;;9.38;84.07;99462.66;7391770;19;19998;-67
2023/04/01 00:10:53;;;;;;;12.60;6.70;;;;;;;9.42;84.32;99461.38;7391154;19;19995;-66
2023/04/01 00:13:20;;;;;;;12.80;7.07;;;;;;;9.43;83.84;99459.53;7389224;19;20074;-66
2023/04/01 00:15:46;;;;;;;10.88;6.50;;;;;;;9.43;84.37;99459.53;7389870;19;20035;-66
2023/04/01 00:18:12;;;;;;;11.05;6.22;;;;;;;9.41;84.29;99458.88;7392137;19;20018;-66
2023/04/01 00:20:38;;;;;;;12.75;6.82;;;;;;;9.33;84.65;99462.28;7390754;19;20011;-65
2023/04/01 00:23:04;;;;;;;12.40;6.95;;;;;;;9.36;84.28;99456.66;7388940;19;20464;-66
2023/04/01 00:25:29;;;;;;;14.13;7.00;;;;;;;9.34;84.88;99458.63;7388864;19;20030;-66
2023/04/01 00:27:55;;;;;;;13.07;7.85;;;;;;;9.37;84.63;99450.41;7391270;19;19999;-65
2023/04/01 00:30:20;;;;;;;12.65;7.07;;;;;;;9.36;84.39;99458.47;7390751;19;20010;-64
2023/04/01 00:32:46;;;;;;;13.85;7.40;;;;;;;9.36;84.62;99456.66;7389149;19;20456;-66
2023/04/01 00:35:12;;;;;;;12.82;7.60;;;;;;;9.38;84.62;99453.88;7389449;19;20494;-67
2023/04/01 00:37:39;;;;;;;10.50;6.30;;;;;;;9.40;84.52;99455.38;7390437;19;20007;-67
2023/04/01 00:40:07;;;;;;;10.43;6.28;;;;;;;9.36;84.41;99461.97;7391371;19;20340;-67
2023/04/01 00:42:33;;;;;;;11.70;6.90;;;;;;;9.38;84.67;99451.22;7388317;19;20008;-68
2023/04/01 00:45:18;;;;;;;11.90;7.40;;;;;;;9.35;84.64;99452.34;7387876;19;20018;-68
2023/04/01 00:47:44;;;;;;;14.68;7.90;;;;;;;9.27;85.07;99454.91;7390139;19;20003;-68
2023/04/01 00:50:10;;;;;;;14.25;7.35;;;;;;;9.33;84.94;99456.13;7388235;19;20090;-68
2023/04/01 00:52:35;;;;;;;13.48;7.07;;;;;;;9.38;84.71;99457.34;7388637;19;20006;-68
2023/04/01 00:55:04;;;;;;;13.43;7.50;;;;;;;9.35;84.60;99460.28;7388641;19;20006;-65
2023/04/01 00:57:37;;;;;;;13.65;6.93;;;;;;;9.38;84.72;99461.81;7389143;19;20026;-64
2023/04/01 01:00:13;;;;;;;14.23;7.40;;;;;;;9.40;84.57;99458.00;7390151;19;20486;-64
2023/04/01 01:02:41;;;;;;;12.07;7.13;;;;;;;9.40;84.49;99465.97;7388615;19;20329;-65
2023/04/01 01:05:06;;;;;;;13.23;7.75;;;;;;;9.32;84.81;99462.41;7387528;19;19998;-64
2023/04/01 01:07:55;;;;;;;11.95;7.32;;;;;;;9.36;84.97;99463.78;7389909;19;20066;-64
2023/04/01 01:10:23;;;;;;;12.35;7.47;;;;;;;9.36;84.83;99458.47;7390026;19;20021;-65
2023/04/01 01:12:54;;;;;;;12.30;7.28;;;;;;;9.40;84.66;99460.66;7384212;19;20019;-61
2023/04/01 01:15:26;;;;;;;12.95;7.38;;;;;;;9.29;84.56;99462.69;7390477;19;20007;-61
2023/04/01 01:18:01;;;;;;;13.82;7.32;;;;;;;9.31;84.73;99461.59;7389678;19;20003;-61
2023/04/01 01:20:39;;;;;;;11.63;7.40;;;;;;;9.34;84.57;99458.63;7390418;19;20036;-61
2023/04/01 01:23:04;;;;;;;15.93;7.25;;;;;;;9.38;84.76;99457.34;7388130;19;20011;-61
2023/04/01 01:25:47;;;;;;;13.10;7.47;;;;;;;9.36;84.66;99456.66;7389555;19;20393;-62
2023/04/01 01:28:23;;;;;;;12.88;8.35;;;;;;;9.34;84.85;99458.63;7389488;19;20034;-61
2023/04/01 01:30:58;;;;;;;13.52;7.63;;;;;;;9.28;85.09;99461.88;7390251;19;20003;-62
2023/04/01 01:33:40;;;;;;;12.80;7.63;;;;;;;9.32;84.85;99459.75;7386793;19;20003;-62
2023/04/01 01:36:11;;;;;;;14.00;7.22;;;;;;;9.28;84.95;99466.34;7390712;19;20006;-62
2023/04/01 01:38:37;;;;;;;12.35;7.10;;;;;;;9.27;85.32;99465.50;7396750;19;20070;-60
2023/04/01 01:41:06;;;;;;;11.77;7.35;;;;;;;9.31;84.95;99460.75;7397383;19;20017;-59
2023/04/01 01:43:44;;;;;;;12.75;7.20;;;;;;;9.32;85.12;99457.94;7393883;19;20398;-61
2023/04/01 01:46:14;;;;;;;12.18;6.78;;;;;;;9.36;84.75;99461.97;7395408;19;20477;-62
2023/04/01 01:48:43;;;;;;;11.45;7.53;;;;;;;9.39;84.67;99466.13;7396408;19;20013;-63
2023/04/01 01:51:08;;;;;;;12.05;7.78;;;;;;;9.37;84.57;99461.00;7397841;19;20316;-63
2023/04/01 01:53:35;;;;;;;11.05;7.00;;;;;;;9.34;84.81;99465.75;7393074;19;20105;-63
2023/04/01 01:56:00;;;;;;;11.85;6.97;;;;;;;9.33;84.97;99464.06;7393547;19;20344;-63
2023/04/01 01:58:43;;;;;;;11.18;7.47;;;;;;;9.34;84.98;99466.59;7397061;19;20003;-63
2023/04/01 02:01:17;;;;;;;10.55;6.95;;;;;;;9.32;84.96;99468.53;7396642;19;20029;-60
2023/04/01 02:03:44;;;;;;;10.18;6.90;;;;;;;9.28;85.37;99472.47;7393342;19;20007;-60
2023/04/01 02:06:12;;;;;;;10.35;6.43;;;;;;;9.25;85.26;99470.13;7395896;19;20002;-60
2023/04/01 02:08:58;;;;;;;10.32;6.57;;;;;;;9.27;85.35;99470.81;7393899;19;20556;-60
2023/04/01 02:11:33;;;;;;;12.15;6.97;;;;;;;9.28;85.21;99469.81;7394382;19;20446;-60
2023/04/01 02:14:06;;;;;;;11.15;6.82;;;;;;;9.37;85.05;99466.28;7391781;19;20018;-60
2023/04/01 02:16:39;;;;;;;11.38;7.57;;;;;;;9.36;84.70;99466.44;7395695;19;19999;-60
2023/04/01 02:19:07;;;;;;;12.45;7.32;;;;;;;9.34;84.71;99468.41;7396086;19;20002;-60
2023/04/01 02:21:34;;;;;;;11.40;7.38;;;;;;;9.32;84.89;99467.72;7395908;19;19995;-60
2023/04/01 02:24:04;;;;;;;11.02;7.25;;;;;;;9.38;84.63;99475.91;7395564;19;20433;-60
2023/04/01 02:26:30;;;;;;;13.55;8.30;;;;;;;9.34;84.70;99473.72;7394316;19;19998;-60
2023/04/01 02:28:58;;;;;;;11.60;7.35;;;;;;;9.29;85.07;99479.44;7395222;19;20013;-60
2023/04/01 02:31:25;;;;;;;11.15;7.55;;;;;;;9.29;85.14;99473.31;7394661;19;20380;-60
2023/04/01 02:33:52;;;;;;;10.95;7.50;;;;;;;9.32;84.99;99476.50;7393156;19;19994;-60
2023/04/01 02:36:18;;;;;;;11.68;7.90;;;;;;;9.27;85.16;99485.88;7392712;19;19999;-60
2023/04/01 02:38:45;;;;;;;10.77;7.95;;;;;;;9.26;85.08;99477.09;7394665;19;20010;-60
2023/04/01 02:41:11;;;;;;;11.95;8.02;;;;;;;9.30;84.96;99481.13;7394828;19;20062;-60
2023/04/01 02:43:37;;;;;;;13.68;7.88;;;;;;;9.27;85.13;99480.59;7392141;19;19995;-59
2023/04/01 02:46:03;;;;;;;10.27;7.30;;;;;;;9.28;85.21;99480.44;7392214;19;20002;-61
2023/04/01 02:48:29;;;;;;;12.85;7.53;;;;;;;9.30;84.83;99483.78;7393832;19;20007;-61
2023/04/01 02:50:54;;;;;;;11.05;7.80;;;;;;;9.30;84.86;99478.47;7394436;19;20066;-61
2023/04/01 02:53:26;;;;;;;12.57;8.00;;;;;;;9.20;85.56;99485.63;7391843;19;19995;-62
2023/04/01 02:55:52;;;;;;;11.70;8.18;;;;;;;9.27;85.10;99492.00;7391354;19;20007;-62
2023/04/01 02:58:18;;;;;;;12.18;7.60;;;;;;;9.30;85.10;99491.72;7393512;19;20466;-62
2023/04/01 03:00:43;;;;;;;12.00;7.45;;;;;;;9.29;85.10;99492.69;7394212;19;20008;-61
2023/04/01 03:03:09;;;;;;;12.70;8.70;;;;;;;9.26;85.00;99497.47;7391469;19;20470;-61
2023/04/01 03:05:35;;;;;;;12.38;7.60;;;;;;;9.22;85.22;99502.25;7393704;19;20003;-62
2023/04/01 03:08:02;;;;;;;11.95;7.80;;;;;;;9.27;85.32;99496.50;7393719;19;20014;-61
2023/04/01 03:10:27;;;;;;;15.73;7.63;;;;;;;9.22;85.29;99499.59;7391585;19;20009;-62
2023/04/01 03:12:53;;;;;;;11.05;7.53;;;;;;;9.28;84.98;99500.78;7390961;19;20014;-61
2023/04/01 03:15:18;;;;;;;12.40;7.90;;;;;;;9.25;85.01;99504.56;7391719;19;20003;-62
2023/04/01 03:17:44;;;;;;;11.60;7.68;;;;;;;9.27;85.12;99505.25;7393034;19;20463;-61
2023/04/01 03:20:10;;;;;;;11.68;7.63;;;;;;;9.21;85.08;99497.91;7393608;19;20002;-61
2023/04/01 03:22:37;;;;;;;10.73;7.53;;;;;;;9.18;85.17;99498.19;7389483;19;20446;-62
2023/04/01 03:25:03;;;;;;;11.88;7.88;;;;;;;9.21;85.32;99497.91;7392870;19;20003;-61
2023/04/01 03:27:29;;;;;;;11.38;6.70;;;;;;;9.25;85.00;99506.38;7392899;19;20034;-63
2023/04/01 03:29:55;;;;;;;11.10;6.95;;;;;;;9.15;85.25;99502.00;7392832;19;20003;-61
2023/04/01 03:32:20;;;;;;;13.38;7.25;;;;;;;9.18;85.21;99503.50;7391408;19;20103;-64
2023/04/01 03:34:46;;;;;;;10.63;7.18;;;;;;;9.11;85.18;99502.44;7390934;19;20003;-63
2023/04/01 03:37:11;;;;;;;12.10;6.78;;;;;;;9.14;85.16;99507.41;7393390;19;19999;-63
2023/04/01 03:39:37;;;;;;;11.43;7.40;;;;;;;9.13;85.44;99508.41;7392147;19;20671;-64
2023/04/01 03:42:03;;;;;;;11.13;7.18;;;;;;;9.18;84.86;99508.78;7391956;19;20003;-65
2023/04/01 03:44:32;;;;;;;11.10;7.35;;;;;;;9.13;84.90;99503.09;7392343;19;19999;-64
2023/04/01 03:46:58;;;;;;;11.90;7.45;;;;;;;9.13;85.10;99508.41;7390852;19;20480;-63
2023/04/01 03:49:23;;;;;;;12.05;7.70;;;;;;;9.14;84.97;99515.38;7392839;19;20034;-65
2023/04/01 03:51:49;;;;;;;10.77;6.20;;;;;;;9.15;85.02;99520.53;7391214;19;19995;-65
2023/04/01 03:54:15;;;;;;;9.88;6.10;;;;;;;9.19;84.66;99518.44;7391768;19;20007;-63
2023/04/01 03:56:40;;;;;;;10.32;6.22;;;;;;;9.21;84.67;99516.44;7391667;19;19998;-64
2023/04/01 03:59:07;;;;;;;11.38;6.63;;;;;;;9.15;84.77;99517.06;7390448;19;20002;-64
2023/04/01 04:01:33;;;;;;;10.07;6.32;;;;;;;9.08;84.92;99521.28;7391067;19;20463;-64
2023/04/01 04:03:59;;;;;;;12.10;5.55;;;;;;;9.10;84.99;99528.06;7387606;19;20058;-64
2023/04/01 04:06:25;;;;;;;10.57;6.15;;;;;;;9.14;84.83;99526.81;7391830;19;20458;-63
2023/04/01 04:08:51;;;;;;;10.80;6.47;;;;;;;9.12;84.81;99525.28;7390006;19;19999;-64
2023/04/01 04:11:18;;;;;;;9.85;6.05;;;;;;;9.11;84.72;99527.13;7392000;19;20029;-64
2023/04/01 04:13:43;;;;;;;13.35;6.72;;;;;;;9.06;85.11;99520.56;7388223;19;20486;-63
2023/04/01 04:16:09;;;;;;;11.57;6.47;;;;;;;9.04;85.02;99526.03;7390384;19;19990;-63
2023/04/01 04:18:36;;;;;;;10.68;5.32;;;;;;;9.05;85.16;99529.50;7391278;19;19995;-62
2023/04/01 04:21:02;;;;;;;10.85;6.13;;;;;;;9.09;84.65;99530.88;7391526;19;19998;-62
2023/04/01 04:23:29;;;;;;;10.63;5.43;;;;;;;9.10;84.68;99532.53;7389656;19;20011;-63
2023/04/01 04:25:56;;;;;;;11.35;5.47;;;;;;;9.00;84.93;99532.59;7390687;19;20014;-61
2023/04/01 04:28:22;;;;;;;9.95;5.60;;;;;;;9.06;84.82;99539.13;7391453;19;20002;-61
2023/04/01 04:30:48;;;;;;;10.68;5.05;;;;;;;9.04;84.84;99541.09;7392593;19;19997;-62
2023/04/01 04:33:13;;;;;;;11.95;5.75;;;;;;;9.04;84.73;99541.91;7388435;19;20066;-62
2023/04/01 04:35:39;;;;;;;9.90;4.97;;;;;;;9.02;84.73;99538.56;7389736;19;19995;-62
2023/04/01 04:38:04;;;;;;;10.70;6.15;;;;;;;9.04;84.63;99544.56;7390703;19;20022;-62
2023/04/01 04:40:30;;;;;;;9.25;5.60;;;;;;;9.05;84.80;99554.19;7389610;19;19998;-63
2023/04/01 04:42:55;;;;;;;9.23;5.43;;;;;;;8.98;84.76;99559.22;7387584;19;19995;-62
2023/04/01 04:45:21;;;;;;;11.65;5.85;;;;;;;8.96;85.02;99557.72;7388483;19;20002;-63
2023/04/01 04:47:46;;;;;;;8.50;5.05;;;;;;;9.03;84.89;99555.28;7391591;19;20038;-62
2023/04/01 04:50:12;;;;;;;10.10;4.63;;;;;;;9.07;84.74;99559.34;7390593;19;19998;-61
2023/04/01 04:52:38;;;;;;;11.70;5.60;;;;;;;9.07;84.38;99557.53;7387303;19;20018;-63
2023/04/01 04:55:04;;;;;;;9.15;5.03;;;;;;;9.08;84.45;99559.19;7386324;19;19999;-63
2023/04/01 04:57:29;;;;;;;8.80;4.93;;;;;;;9.08;84.46;99561.84;7390520;19;20002;-63
2023/04/01 04:59:55;;;;;;;9.10;4.70;;;;;;;9.07;84.46;99564.66;7390706;19;20003;-63
2023/04/01 05:02:21;;;;;;;7.53;4.57;;;;;;;9.06;84.35;99571.72;7390054;19;19994;-63
2023/04/01 05:04:46;;;;;;;9.00;4.63;;;;;;;9.00;84.51;99571.50;7389522;19;19999;-63
2023/04/01 05:07:12;;;;;;;8.15;4.13;;;;;;;9.01;84.79;99573.16;7390871;19;20443;-63
2023/04/01 05:09:37;;;;;;;7.60;4.60;;;;;;;9.07;84.44;99575.25;7389002;19;20110;-63
2023/04/01 05:12:03;;;;;;;9.48;4.75;;;;;;;9.05;84.39;99575.38;7396097;19;20015;-63
2023/04/01 05:14:29;;;;;;;10.00;4.28;;;;;;;9.09;84.46;99567.97;7393890;19;20374;-63
2023/04/01 05:16:54;;;;;;;10.02;4.72;;;;;;;9.06;84.32;99581.50;7396830;19;20018;-62
2023/04/01 05:19:20;;;;;;;8.38;4.13;;;;;;;9.03;84.70;99580.00;7397417;19;20017;-63
2023/04/01 05:21:45;;;;;;;6.70;4.20;;;;;;;9.04;84.77;99578.19;7396208;19;20011;-62
2023/04/01 05:24:11;;;;;;;10.30;4.32;;;;;;;9.04;84.83;99581.66;7396693;19;19995;-63
2023/04/01 05:26:37;;;;;;;8.60;3.90;;;;;;;9.06;84.43;99584.97;7396145;19;20019;-64
2023/04/01 05:29:04;;;;;;;6.82;3.83;;;;;;;9.08;84.47;99584.84;7396994;19;20007;-62
2023/04/01 05:31:29;;;;;;;7.80;3.97;;;;;;;9.12;84.41;99591.53;7397389;19;20014;-63
2023/04/01 05:33:55;;;;;;;9.63;4.30;;;;;;;9.08;84.71;99584.84;7392881;19;20474;-68
2023/04/01 05:36:21;;;;;;;9.95;4.30;;;;;;;9.04;84.55;99594.06;7393216;19;20002;-61
2023/04/01 05:38:47;;;;;;;8.23;4.60;;;;;;;9.08;84.45;99595.44;7397009;19;19999;-62
2023/04/01 05:41:13;;;;;;;10.80;5.10;;;;;;;9.08;84.29;99595.44;7394988;19;20501;-63
2023/04/01 05:43:40;;;;;;;11.93;4.78;;;;;;;9.12;84.48;99599.47;7393598;19;20121;-62
2023/04/01 05:46:05;;;;;;;9.43;4.53;;;;;;;9.05;84.96;99593.91;7395737;19;20014;-62
2023/04/01 05:48:33;;;;;;;10.57;5.07;;;;;;;9.14;84.69;99608.09;7395909;19;20002;-63
2023/04/01 05:50:59;;;;;;;10.82;5.20;;;;;;;9.20;84.18;99612.84;7395061;19;19999;-62
2023/04/01 05:53:24;;;;;;;7.78;4.40;;;;;;;9.17;84.25;99603.34;7393319;19;20006;-62
2023/04/01 05:55:50;;;;;;;9.88;4.70;;;;;;;9.20;84.12;99610.19;7394401;19;19994;-62
2023/04/01 05:58:15;;;;;;;10.43;4.47;;;;;;;9.15;84.22;99605.31;7395172;19;19998;-62
2023/04/01 06:00:41;;;;;;;7.38;4.70;;;;;;;9.15;84.23;99610.63;7394845;19;20070;-63
2023/04/01 06:03:06;;;;;;;11.48;4.78;;;;;;;9.21;84.26;99620.63;7393133;19;19999;-62
2023/04/01 06:05:42;;;;;;;8.00;4.38;;;;;;;9.19;84.32;99619.13;7395167;19;19998;-63
2023/04/01 06:08:18;;;;;;;7.65;4.22;;;;;;;9.31;83.69;99623.25;7396034;19;20002;-62
2023/04/01 06:11:01;;;;;;;7.72;4.05;;;;;;;9.35;83.50;99621.97;7396108;19;20024;-62
2023/04/01 06:13:42;;;;;;;7.38;4.10;;;;;;;9.38;83.46;99632.28;7391932;19;20078;-62
2023/04/01 06:16:24;;;;;;;7.28;3.95;;;;;;;9.36;83.82;99626.28;7393168;19;20010;-63
2023/04/01 06:19:10;;;;;;;9.35;3.85;;;;;;;9.43;83.54;99624.72;7394814;19;20447;-63
2023/04/01 06:21:43;;;;;;;7.03;3.63;;;;;;;9.41;83.74;99633.81;7393497;19;20028;-63
2023/04/01 06:24:15;;;;;;;5.90;3.55;;;;;;;9.36;84.01;99636.91;7395210;19;20002;-63
2023/04/01 06:27:06;;;;;;;5.47;3.03;;;;;;;9.41;84.03;99637.31;7394940;19;20005;-63
2023/04/01 06:29:58;;;;;;;6.65;3.30;;;;;;;9.44;83.48;99639.66;7394810;19;20002;-63
2023/04/01 06:32:55;;;;;;;5.32;3.15;;;;;;;9.43;83.66;99637.16;7393815;19;20003;-63
2023/04/01 06:35:36;;;;;;;6.68;3.30;;;;;;;9.48;83.64;99640.19;7394030;19;19995;-63
2023/04/01 06:38:20;;;;;;;5.97;3.33;;;;;;;9.54;83.42;99649.38;7392767;19;20659;-62
2023/04/01 06:41:01;;;;;;;5.53;2.95;;;;;;;9.52;83.49;99652.16;7393320;19;20090;-63
2023/04/01 06:44:19;;;;;;;5.45;2.88;;;;;;;9.45;83.80;99649.28;7393288;19;20006;-63
2023/04/01 06:46:51;;;;;;;4.80;3.13;;;;;;;9.50;83.61;99656.78;7391448;19;20017;-64
2023/04/01 06:49:49;;;;;;;6.05;2.97;;;;;;;9.50;83.68;99658.63;7394276;19;20030;-63
2023/04/01 06:52:38;;;;;;;5.45;2.78;;;;;;;9.43;83.74;99661.84;7390168;19;19995;-63
2023/04/01 06:55:25;;;;;;;6.60;3.08;;;;;;;9.43;83.93;99661.00;7388769;19;19995;-63
2023/04/01 06:57:57;;;;;;;5.47;2.70;;;;;;;9.40;83.95;99667.44;7393824;19;20470;-63
2023/04/01 07:00:34;;;;;;;6.00;2.97;;;;;;;9.34;83.99;99668.03;7394786;19;20385;-64
2023/04/01 07:03:05;;;;;;;6.70;2.90;;;;;;;9.38;84.04;99671.22;7391797;19;19994;-62
2023/04/01 07:05:32;;;;;;;4.05;2.60;;;;;;;9.37;84.06;99667.75;7393457;19;20003;-63
2023/04/01 07:08:01;;;;;;;5.50;2.63;;;;;;;9.40;83.80;99671.91;7394231;19;19999;-63
2023/04/01 07:10:42;;;;;;;8.68;2.75;;;;;;;9.40;83.99;99678.03;7394498;19;20608;-62
2023/04/01 07:13:55;;;;;;;3.92;2.58;;;;;;;9.40;84.42;99677.19;7389371;19;20108;-62
2023/04/01 07:16:30;;;;;;;4.47;2.67;;;;;;;9.32;84.30;99691.19;7392239;19;20022;-63
2023/04/01 07:19:04;;;;;;;4.25;2.22;;;;;;;9.46;83.77;99689.88;7393426;19;20007;-63
2023/04/01 07:21:44;;;;;;;7.78;2.53;;;;;;;9.53;83.59;99698.09;7394287;19;20006;-62
2023/04/01 07:24:24;;;;;;;5.10;2.25;;;;;;;9.68;83.08;99696.66;7390994;19;20383;-62
2023/04/01 07:26:54;;;;;;;5.00;2.10;;;;;;;9.73;82.92;99698.84;7391211;19;20006;-62
2023/04/01 07:29:20;;;;;;;3.60;2.22;;;;;;;9.77;82.66;99702.88;7393823;19;20006;-63
2023/04/01 07:32:11;;;;;;;5.72;2.47;;;;;;;9.82;82.95;99703.25;7393426;19;20498;-64
2023/04/01 07:34:47;;;;;;;6.93;2.30;;;;;;;9.79;83.16;99709.72;7394915;19;20477;-64
2023/04/01 07:37:28;;;;;;;4.47;2.30;;;;;;;9.82;83.10;99711.22;7393013;19;20009;-64
2023/04/01 07:40:12;;;;;;;3.78;2.10;;;;;;;9.70;83.55;99714.06;7390784;19;20027;-63
2023/04/01 07:43:00;;;;;;;4.30;1.90;;;;;;;9.70;83.65;99721.19;7391057;19;20561;-64
2023/04/01 07:46:20;;;;;;;4.03;2.20;;;;;;;9.66;83.77;99722.47;7389241;19;20002;-63
2023/04/01 07:49:01;;;;;;;4.35;2.05;;;;;;;9.64;84.27;99730.56;7388422;19;20431;-65
2023/04/01 07:51:34;;;;;;;5.75;2.28;;;;;;;9.68;83.49;99734.59;7390171;19;20367;-63
2023/04/01 07:54:31;;;;;;;4.15;2.20;;;;;;;9.73;83.53;99736.81;7391860;19;20016;-64
2023/04/01 07:57:18;;;;;;;4.93;2.08;;;;;;;9.66;83.64;99739.22;7391335;19;20010;-63
2023/04/01 07:59:52;;;;;;;10.50;5.07;;;;;;;9.69;83.23;99743.41;7390643;19;20007;-63
2023/04/01 08:02:32;;;;;;;10.98;5.15;;;;;;;9.62;83.48;99748.44;7390649;19;20005;-63
2023/04/01 08:05:00;;;;;;;16.52;11.90;;;;;;;9.68;83.30;99744.38;7389505;19;20003;-63
2023/04/01 08:07:40;;;;;;;3.83;2.33;;;;;;;9.76;82.74;99744.50;7390835;19;20455;-63
2023/04/01 08:10:26;;;;;;;5.10;1.65;;;;;;;9.87;82.59;99751.47;7394242;19;20014;-63
2023/04/01 08:13:25;;;;;;;5.35;2.80;;;;;;;9.98;82.37;99758.38;7392512;19;20047;-65
2023/04/01 08:16:03;;;;;;;8.02;3.83;;;;;;;10.10;82.05;99762.53;7390103;19;19998;-64
2023/04/01 08:19:02;;;;;;;22.40;12.55;;;;;;;10.10;82.06;99762.53;7390795;19;19990;-63
2023/04/01 08:21:50;;;;;;;9.85;4.93;;;;;;;10.04;82.16;99763.94;7391453;19;20017;-64
2023/04/01 08:24:29;;;;;;;7.97;2.45;;;;;;;10.26;81.41;99767.19;7391191;19;20006;-63
2023/04/01 08:26:59;;;;;;;8.70;5.13;;;;;;;10.39;81.01;99757.88;7393898;19;20018;-63
2023/04/01 08:29:39;;;;;;;4.47;2.00;;;;;;;10.48;80.61;99777.41;7393240;19;20090;-65
2023/04/01 08:32:16;;;;;;;8.35;4.55;;;;;;;10.40;81.18;99778.16;7390626;19;20008;-63
2023/04/01 08:34:45;;;;;;;4.22;1.73;;;;;;;10.43;81.29;99780.47;7390271;19;20006;-64
2023/04/01 08:37:17;;;;;;;4.15;1.77;;;;;;;10.55;80.92;99790.91;7391180;19;20007;-64
2023/04/01 08:39:47;;;;;;;7.18;2.35;;;;;;;10.67;80.42;99789.72;7388982;19;20006;-64
2023/04/01 08:42:23;;;;;;;4.60;1.80;;;;;;;10.53;80.65;99787.56;7389861;19;20006;-64
2023/04/01 08:45:15;;;;;;;5.03;1.75;;;;;;;10.55;80.62;99801.53;7392813;19;20673;-64
2023/04/01 08:48:08;;;;;;;5.95;1.60;;;;;;;10.60;80.49;99799.28;7405325;19;20003;-64
2023/04/01 08:50:49;;;;;;;6.63;2.20;;;;;;;10.52;80.37;99797.38;7405419;19;20022;-64
2023/04/01 08:53:33;;;;;;;4.60;2.17;;;;;;;10.31;81.17;99802.91;7402833;19;20009;-64
2023/04/01 08:56:13;;;;;;;;;;;;;;;10.15;82.15;99805.38;7403631;19;20026;-63
2023/04/01 08:58:55;;;;;;;10.35;2.90;;;;;;;10.11;82.07;99815.44;7405060;19;19934;-63
2023/04/01 09:01:46;;;;;;;8.98;3.30;;;;;;;10.18;81.82;99807.75;7403904;19;20462;-63
2023/04/01 09:04:49;;;;;;;5.95;2.00;;;;;;;10.18;81.43;99808.56;7403198;19;20006;-63
2023/04/01 09:07:39;;;;;;;6.90;1.60;;;;;;;10.33;81.64;99813.41;7403511;19;20002;-63
2023/04/01 09:10:32;;;;;;;3.65;1.20;;;;;;;10.39;81.45;99818.94;7404008;19;20003;-64
2023/04/01 09:13:19;;;;;;;2.70;1.27;;;;;;;10.40;80.96;99820.63;7401348;19;20010;-65
2023/04/01 09:16:20;;;;;;;3.70;1.35;;;;;;;10.53;80.63;99827.41;7402640;19;20435;-64
2023/04/01 09:19:06;;;;;;;5.65;1.60;;;;;;;10.63;80.11;99830.81;7404078;19;20335;-65
2023/04/01 09:22:00;;;;;;;2.55;1.30;;;;;;;10.62;80.62;99837.13;7403386;19;20074;-64
2023/04/01 09:24:43;;;;;;;6.22;2.28;;;;;;;10.49;81.33;99834.00;7403104;19;20002;-63
2023/04/01 09:27:24;;;;;;;9.82;3.22;;;;;;;10.67;80.89;99834.88;7404033;19;20008;-63
2023/04/01 09:30:05;;;;;;;3.35;1.30;;;;;;;10.67;80.87;99850.81;7403700;19;20006;-62
2023/04/01 09:32:52;;;;;;;5.68;1.92;;;;;;;10.81;80.08;99849.44;7401661;19;20010;-63
2023/04/01 09:35:25;;;;;;;9.00;2.08;;;;;;;10.97;79.19;99846.97;7402739;19;20372;-63
2023/04/01 09:37:58;;;;;;;4.25;1.55;;;;;;;11.01;79.31;99851.00;7402413;19;20477;-64
2023/04/01 09:40:23;;;;;;;2.63;1.08;;;;;;;11.07;78.83;99850.38;7402860;19;20006;-64
2023/04/01 09:43:05;;;;;;;1.95;1.20;;;;;;;11.05;78.91;99862.16;7403337;19;20013;-64
2023/04/01 09:45:55;;;;;;;2.45;0.93;;;;;;;10.92;79.14;99868.69;7403406;19;19999;-64
2023/04/01 09:48:29;;;;;;;2.88;0.82;;;;;;;10.86;79.42;99863.97;7402642;19;20006;-62
2023/04/01 09:51:05;;;;;;;3.25;1.10;;;;;;;10.98;79.30;99869.91;7404054;19;20003;-64
2023/04/01 09:53:36;;;;;;;2.33;1.20;;;;;;;11.04;78.71;99868.47;7399794;19;20011;-63
2023/04/01 09:56:27;;;;;;;3.55;1.10;;;;;;;11.05;79.38;99872.78;7399783;19;20478;-63
2023/04/01 09:59:19;;;;;;;1.48;0.90;;;;;;;10.80;79.38;99877.84;7395374;19;20479;-63
2023/04/01 10:02:22;;;;;;;3.10;0.90;;;;;;;10.69;79.99;99889.50;7395688;19;20007;-62
2023/04/01 10:05:08;;;;;;;1.00;0.70;;;;;;;10.66;80.24;99886.31;7394658;19;20012;-64
2023/04/01 10:07:56;;;;;;;1.42;0.50;;;;;;;10.37;80.31;99894.44;7396051;19;20002;-64
2023/04/01 10:10:58;;;;;;;0.30;0.20;;;;;;;9.63;79.07;99913.69;7395099;19;20462;-64
2023/04/01 10:13:30;;;;;;;0.32;0.20;;;;;;;9.30;81.37;99922.91;7392735;19;20009;-64
2023/04/01 10:16:10;;;;;;;0.45;0.20;;;;;;;9.29;81.41;99923.84;7392671;19;19995;-63
2023/04/01 10:18:55;;;;;;;1.73;0.45;;;;;;;9.33;80.30;99927.91;7394415;19;20021;-63
2023/04/01 10:21:50;;;;;;;0.50;0.30;;;;;;;9.28;80.53;99948.69;7395509;19;20078;-63
2023/04/01 10:24:15;;;;;;;1.95;0.30;;;;;;;9.29;80.44;99945.06;7395856;19;20028;-63
2023/04/01 10:27:02;;;;;;;0.73;0.45;;;;;;;9.19;79.57;99950.38;7395186;19;19995;-63
2023/04/01 10:30:01;;;;;;;0.95;0.30;;;;;;;9.19;79.75;99958.31;7395212;19;20025;-63
2023/04/01 10:32:42;;;;;;;0.90;0.40;;;;;;;9.28;79.61;99959.31;7391354;19;20003;-62
2023/04/01 10:35:26;;;;;;;1.80;0.57;;;;;;;9.20;79.71;99954.69;7393901;19;20003;-63
2023/04/01 10:38:00;;;;;;;1.05;0.70;;;;;;;9.08;79.93;99961.91;7394231;19;20006;-63
2023/04/01 10:40:46;;;;;;;0.63;0.43;;;;;;;9.05;80.59;99962.19;7394798;19;20006;-63
2023/04/01 10:43:14;;;;;;;0.85;0.38;;;;;;;8.97;80.24;99967.31;7390182;19;20102;-62
2023/04/01 10:46:14;;;;;;;2.20;0.30;;;;;;;9.01;79.88;99968.72;7392805;19;20078;-63
2023/04/01 10:48:39;;;;;;;0.75;0.30;;;;;;;9.18;79.09;99973.38;7394007;19;20020;-63
2023/04/01 10:51:25;;;;;;;0.80;0.30;;;;;;;9.18;78.87;99972.53;7395044;19;20007;-64
2023/04/01 10:54:15;;;;;;;1.17;0.47;;;;;;;9.14;78.04;99979.94;7391193;19;20002;-65
2023/04/01 10:57:29;;;;;;;0.50;0.30;;;;;;;9.07;78.21;99988.56;7392185;19;19998;-64
2023/04/01 11:00:06;;;;;;;0.57;0.30;;;;;;;8.98;78.57;99988.38;7391038;19;19999;-63
2023/04/01 11:03:01;;;;;;;0.30;0.30;;;;;;;8.81;78.05;99996.97;7393455;19;20099;-64
2023/04/01 11:05:55;;;;;;;0.68;0.40;;;;;;;8.82;79.10;100005.75;7393228;19;20007;-64
2023/04/01 11:08:45;;;;;;;0.50;0.30;;;;;;;8.88;78.07;100008.72;7392999;19;20006;-63
2023/04/01 11:11:44;;;;;;;1.25;0.30;;;;;;;8.94;77.69;100012.63;7393891;19;20010;-63
2023/04/01 11:14:27;;;;;;;1.02;0.47;;;;;;;8.84;78.13;100015.25;7390728;19;20013;-62
2023/04/01 11:17:05;;;;;;;0.70;0.50;;;;;;;8.91;78.49;100019.03;7393773;19;19997;-63
2023/04/01 11:19:38;;;;;;;0.88;0.43;;;;;;;8.81;78.38;100022.63;7392907;19;20002;-64
2023/04/01 11:22:16;;;;;;;2.53;0.57;;;;;;;8.85;77.98;100032.81;7392549;19;19999;-63
2023/04/01 11:25:05;;;;;;;1.17;0.63;;;;;;;8.81;77.83;100027.91;7393548;19;20016;-63
2023/04/01 11:27:50;;;;;;;0.90;0.55;;;;;;;8.74;78.34;100039.03;7394047;19;19998;-63
2023/04/01 11:30:30;;;;;;;0.60;0.50;;;;;;;8.71;77.58;100047.22;7390528;19;20012;-64
2023/04/01 11:33:16;;;;;;;0.50;0.35;;;;;;;8.59;78.05;100050.94;7391397;19;20002;-64
2023/04/01 11:36:06;;;;;;;1.35;0.50;;;;;;;8.52;77.84;100054.22;7389375;19;20009;-64
2023/04/01 11:38:50;;;;;;;1.55;0.45;;;;;;;8.51;78.73;100055.19;7391747;19;20310;-63
2023/04/01 11:41:26;;;;;;;0.93;0.60;;;;;;;8.36;78.83;100055.53;7390013;19;20017;-63
2023/04/01 11:43:52;;;;;;;1.52;0.50;;;;;;;8.40;78.56;100058.75;7389748;19;20348;-63
2023/04/01 11:46:28;;;;;;;1.80;0.57;;;;;;;8.27;78.63;100066.88;7391463;19;20002;-63
2023/04/01 11:49:12;;;;;;;1.50;1.00;;;;;;;8.27;77.70;100074.81;7392297;19;20026;-63
2023/04/01 11:52:11;;;;;;;1.30;0.60;;;;;;;8.32;77.91;100077.09;7390753;19;20501;-63
2023/04/01 11:55:15;;;;;;;3.10;0.55;;;;;;;8.40;77.35;100078.09;7389934;19;20009;-64
2023/04/01 11:57:52;;;;;;;1.02;0.70;;;;;;;8.30;78.04;100087.78;7391962;19;20006;-63
2023/04/01 12:00:29;;;;;;;0.80;0.68;;;;;;;8.21;78.36;100096.47;7392187;19;19997;-64
2023/04/01 12:03:28;;;;;;;0.80;0.60;;;;;;;8.18;78.32;100091.41;7389158;19;19994;-63
2023/04/01 12:06:01;;;;;;;2.25;0.65;;;;;;;8.23;78.18;100100.66;7390827;19;20005;-62
2023/04/01 12:08:54;;;;;;;1.27;0.77;;;;;;;8.19;78.15;100111.63;7388466;19;20462;-64
2023/04/01 12:11:25;;;;;;;1.73;0.60;;;;;;;8.12;78.13;100111.28;7392566;19;20325;-63
2023/04/01 12:14:03;;;;;;;1.73;0.73;;;;;;;8.16;77.76;100117.19;7388291;19;20085;-64